Time;durP1;ratioP1;P1;durP2;ratioP2;P2;SDS_P1;SDS_P2;PMS_P1;PMS_P2;Temp;Humidity;BMP_temperature;BMP_pressure;BME280_temperature;BME280_humidity;BME280_pressure;Samples;Min_cycle;Max_cycle;Signal;HPM_P1;HPM_P2
2022/05/23 00:01:29;;;;;;;6.90;5.40;;;;;;;15.08;64.19;100883.50;5037770;28;20218;-64
2022/05/23 00:03:55;;;;;;;7.43;4.87;;;;;;;15.09;63.78;100875.59;5038008;28;20204;-64
2022/05/23 00:06:21;;;;;;;5.93;5.10;;;;;;;15.05;63.59;100878.28;5037666;28;20258;-64
2022/05/23 00:08:47;;;;;;;7.13;5.30;;;;;;;14.62;64.78;100885.47;5040349;28;20181;-64
2022/05/23 00:11:13;;;;;;;7.80;5.07;;;;;;;14.99;64.47;100874.81;5042065;28;20170;-64
2022/05/23 00:13:38;;;;;;;6.00;4.80;;;;;;;14.90;64.08;100884.50;5041540;28;20691;-64
2022/05/23 00:16:04;;;;;;;6.40;4.70;;;;;;;14.65;64.95;100879.34;5041768;28;20178;-64
2022/05/23 00:18:29;;;;;;;5.37;4.60;;;;;;;15.09;64.34;100875.59;5041474;28;20304;-64
2022/05/23 00:20:55;;;;;;;5.03;4.23;;;;;;;14.92;64.30;100887.97;5041514;28;20214;-64
2022/05/23 00:23:22;;;;;;;7.60;5.07;;;;;;;15.02;63.82;100870.41;5041603;28;20183;-65
2022/05/23 00:25:48;;;;;;;6.07;5.00;;;;;;;15.31;63.53;100868.44;5041460;28;20181;-63
2022/05/23 00:28:13;;;;;;;5.30;4.70;;;;;;;15.39;62.74;100880.66;5041379;28;20432;-63
2022/05/23 00:30:38;;;;;;;5.93;5.10;;;;;;;15.61;62.57;100873.44;5041788;28;20421;-64
2022/05/23 00:35:53;;;;;;;6.50;4.60;;;;;;;15.15;63.77;100874.69;5041521;28;20185;-64
2022/05/23 00:38:18;;;;;;;5.77;4.70;;;;;;;14.73;64.01;100877.56;5041383;28;20674;-64
2022/05/23 00:43:49;;;;;;;7.33;4.50;;;;;;;15.03;63.79;100864.28;5040517;28;20177;-64
2022/05/23 00:46:14;;;;;;;7.23;4.40;;;;;;;14.73;64.42;100863.59;5041323;28;20509;-64
2022/05/23 00:48:39;;;;;;;6.43;4.50;;;;;;;14.27;65.57;100856.75;5041010;28;20466;-64
2022/05/23 00:51:14;;;;;;;8.70;4.80;;;;;;;14.11;67.04;100856.84;5040981;28;20551;-64
2022/05/23 00:53:44;;;;;;;6.43;4.60;;;;;;;13.86;67.30;100855.16;5040285;28;20539;-64
2022/05/23 00:56:11;;;;;;;7.57;5.13;;;;;;;14.40;65.93;100853.22;5040258;28;20733;-64
2022/05/23 00:58:42;;;;;;;4.83;4.40;;;;;;;14.04;66.46;100849.84;5040675;28;20479;-63
2022/05/23 01:01:11;;;;;;;6.30;4.63;;;;;;;14.40;66.03;100842.72;5040040;28;20520;-65
2022/05/23 01:03:37;;;;;;;5.40;4.90;;;;;;;14.19;66.38;100837.56;5039898;28;20511;-64
2022/05/23 01:06:07;;;;;;;6.43;4.87;;;;;;;14.31;66.32;100833.16;5040752;28;20421;-64
2022/05/23 01:08:36;;;;;;;7.37;4.70;;;;;;;14.65;65.27;100824.25;5040769;28;20277;-63
2022/05/23 01:11:03;;;;;;;5.27;4.37;;;;;;;13.98;66.44;100828.91;5040364;28;20487;-64
2022/05/23 01:13:28;;;;;;;6.50;4.87;;;;;;;14.12;66.35;100819.22;5039717;28;20435;-64
2022/05/23 01:15:53;;;;;;;5.13;4.33;;;;;;;14.11;67.17;100814.88;5040663;28;20420;-64
2022/05/23 01:18:19;;;;;;;5.50;5.00;;;;;;;14.12;67.18;100819.22;5040474;28;20225;-65
2022/05/23 01:20:45;;;;;;;10.63;5.47;;;;;;;14.50;66.01;100819.94;5039632;28;20210;-65
2022/05/23 01:23:35;;;;;;;5.37;4.57;;;;;;;14.49;65.88;100820.81;5040614;28;20185;-64
2022/05/23 01:26:01;;;;;;;7.90;5.23;;;;;;;14.68;65.24;100808.53;5039920;28;20843;-63
2022/05/23 01:28:31;;;;;;;5.83;4.70;;;;;;;14.51;65.71;100813.81;5040289;28;20494;-64
2022/05/23 01:30:57;;;;;;;5.67;4.90;;;;;;;14.22;66.24;100806.97;5040377;28;20177;-64
2022/05/23 01:33:23;;;;;;;5.20;4.70;;;;;;;13.84;67.88;100814.97;5040102;28;20421;-64
2022/05/23 01:35:48;;;;;;;7.20;5.70;;;;;;;14.39;66.11;100808.63;5040736;28;20496;-63
2022/05/23 01:38:13;;;;;;;5.47;4.90;;;;;;;14.52;66.71;100804.19;5040023;28;20185;-64
2022/05/23 01:40:39;;;;;;;5.30;4.80;;;;;;;14.38;66.48;100801.66;5040044;28;20472;-64
2022/05/23 01:43:05;;;;;;;5.50;4.67;;;;;;;14.10;67.49;100801.78;5040444;28;20200;-64
2022/05/23 01:45:32;;;;;;;6.93;4.80;;;;;;;14.31;66.71;100803.44;5039976;28;20178;-65
2022/05/23 01:47:57;;;;;;;7.30;4.40;;;;;;;14.48;66.16;100811.22;5039873;28;20460;-65
2022/05/23 01:50:23;;;;;;;5.27;4.77;;;;;;;13.98;68.34;100800.06;5040554;28;20462;-64
2022/05/23 01:52:49;;;;;;;5.60;5.10;;;;;;;14.61;66.38;100796.25;5039741;28;20178;-63
2022/05/23 01:55:14;;;;;;;8.10;5.00;;;;;;;13.96;68.11;100794.84;5039822;28;20270;-64
2022/05/23 01:57:40;;;;;;;5.53;5.00;;;;;;;14.00;67.66;100787.81;5040321;28;20459;-65
2022/05/23 02:02:51;;;;;;;5.83;4.80;;;;;;;14.27;67.06;100778.94;5039967;28;20189;-64
2022/05/23 02:05:18;;;;;;;5.37;4.80;;;;;;;14.11;67.82;100780.81;5039643;28;20416;-64
2022/05/23 02:07:43;;;;;;;6.57;5.23;;;;;;;13.94;67.88;100774.75;5039595;28;20215;-64
2022/05/23 02:10:10;;;;;;;5.60;5.00;;;;;;;13.71;68.87;100780.94;5039802;28;20399;-64
2022/05/23 02:12:36;;;;;;;9.33;5.40;;;;;;;13.35;70.17;100764.38;5039340;28;20175;-64
2022/05/23 02:15:03;;;;;;;4.90;4.50;;;;;;;14.04;68.00;100762.47;5039517;28;20726;-63
2022/05/23 02:17:28;;;;;;;9.07;5.23;;;;;;;13.85;68.48;100764.31;5039571;28;20457;-64
2022/05/23 02:19:53;;;;;;;5.73;5.10;;;;;;;14.00;68.21;100758.97;5039249;28;20487;-65
2022/05/23 02:22:19;;;;;;;8.43;6.40;;;;;;;13.95;67.92;100753.78;5039236;28;20563;-64
2022/05/23 02:24:44;;;;;;;7.00;5.57;;;;;;;14.21;67.69;100749.31;5039233;28;20174;-64
2022/05/23 02:27:09;;;;;;;7.10;5.30;;;;;;;14.05;68.44;100751.97;5039188;28;20174;-64
2022/05/23 02:29:35;;;;;;;5.63;5.00;;;;;;;13.74;68.46;100746.84;5039532;28;20620;-64
2022/05/23 02:32:01;;;;;;;6.70;5.27;;;;;;;14.53;67.33;100743.88;5038680;28;20171;-64
2022/05/23 02:34:26;;;;;;;8.97;5.60;;;;;;;14.35;66.95;100743.97;5038997;28;20521;-64
2022/05/23 02:36:52;;;;;;;5.70;5.20;;;;;;;14.10;67.21;100733.63;5039371;28;20452;-63
2022/05/23 02:39:17;;;;;;;7.10;5.40;;;;;;;14.10;67.60;100738.88;5038966;28;20198;-64
2022/05/23 02:41:43;;;;;;;5.90;5.27;;;;;;;14.32;66.68;100724.75;5038967;28;20178;-64
2022/05/23 02:44:08;;;;;;;6.20;5.00;;;;;;;14.38;66.63;100730.81;5039211;28;20427;-64
2022/05/23 02:46:34;;;;;;;11.00;5.60;;;;;;;14.35;66.59;100731.72;5038927;28;20536;-64
2022/05/23 02:49:00;;;;;;;6.23;5.33;;;;;;;13.77;67.83;100728.53;5038809;28;20178;-64
2022/05/23 02:51:25;;;;;;;5.30;4.90;;;;;;;14.55;65.62;100721.09;5039226;28;20394;-64
2022/05/23 02:53:51;;;;;;;5.70;5.20;;;;;;;14.27;65.29;100718.63;5038588;28;20188;-64
2022/05/23 02:56:17;;;;;;;6.73;5.60;;;;;;;14.09;67.10;100719.63;5038700;28;20177;-63
2022/05/23 02:58:42;;;;;;;6.07;5.47;;;;;;;13.58;67.50;100729.44;5039196;28;20626;-64
2022/05/23 03:01:07;;;;;;;6.40;5.40;;;;;;;13.51;68.53;100715.50;5038560;28;20450;-63
2022/05/23 03:03:33;;;;;;;6.17;5.57;;;;;;;13.60;68.71;100717.22;5038455;28;20166;-64
2022/05/23 03:05:59;;;;;;;6.23;5.50;;;;;;;13.61;68.18;100713.72;5038995;28;20529;-64
2022/05/23 03:08:26;;;;;;;8.47;5.90;;;;;;;14.16;66.70;100712.59;5038538;28;20420;-64
2022/05/23 03:10:52;;;;;;;6.30;5.60;;;;;;;14.27;65.84;100713.41;5038419;28;20178;-64
2022/05/23 03:13:18;;;;;;;6.10;5.40;;;;;;;14.17;65.89;100714.34;5038750;28;20504;-64
2022/05/23 03:15:43;;;;;;;6.20;5.57;;;;;;;14.28;66.15;100706.41;5038467;28;20452;-64
2022/05/23 03:18:09;;;;;;;6.10;5.20;;;;;;;13.90;65.99;100713.59;5038245;28;20226;-64
2022/05/23 03:20:34;;;;;;;5.03;4.63;;;;;;;13.57;67.35;100712.88;5038774;28;20505;-65
2022/05/23 03:28:31;;;;;;;6.77;5.60;;;;;;;13.97;66.04;100711.84;5038274;28;20447;-64
2022/05/23 03:30:56;;;;;;;7.17;5.27;;;;;;;13.21;68.49;100714.66;5038134;28;20395;-64
2022/05/23 03:33:22;;;;;;;8.10;5.50;;;;;;;13.53;68.07;100705.00;5038010;28;20270;-64
2022/05/23 03:35:48;;;;;;;6.73;5.50;;;;;;;13.57;67.14;100706.75;5038097;28;20257;-63
2022/05/23 03:38:13;;;;;;;5.93;5.40;;;;;;;13.52;67.53;100692.78;5038552;28;20826;-64
2022/05/23 03:40:40;;;;;;;6.90;6.13;;;;;;;13.52;66.77;100698.03;5038110;28;20266;-64
2022/05/23 03:43:07;;;;;;;7.17;5.67;;;;;;;13.75;66.47;100698.81;5036607;28;20224;-64
2022/05/23 03:45:33;;;;;;;5.60;5.03;;;;;;;13.44;67.21;100696.31;5038469;28;20406;-64
2022/05/23 03:47:59;;;;;;;7.87;5.70;;;;;;;13.50;66.88;100699.78;5038030;28;20706;-64
2022/05/23 03:50:27;;;;;;;6.50;5.80;;;;;;;13.52;66.52;100692.78;5037922;28;20396;-64
2022/05/23 03:52:52;;;;;;;6.60;5.90;;;;;;;13.60;65.53;100685.81;5038319;28;20170;-64
2022/05/23 03:55:19;;;;;;;6.80;5.43;;;;;;;13.12;67.23;100688.50;5037854;28;20471;-64
2022/05/23 03:57:44;;;;;;;6.30;5.20;;;;;;;13.73;65.67;100682.22;5037957;28;20181;-64
2022/05/23 04:00:12;;;;;;;5.93;5.33;;;;;;;13.48;65.36;100677.09;5038652;28;20464;-64
2022/05/23 04:02:38;;;;;;;7.07;5.33;;;;;;;13.44;65.36;100683.22;5037772;28;20181;-64
2022/05/23 04:05:04;;;;;;;5.60;5.00;;;;;;;13.29;65.71;100680.63;5037828;28;20417;-64
2022/05/23 04:07:30;;;;;;;6.90;5.53;;;;;;;13.34;65.10;100681.50;5038287;28;20170;-64
2022/05/23 04:09:56;;;;;;;6.87;5.20;;;;;;;13.82;64.34;100671.72;5037810;28;20662;-64
2022/05/23 04:12:21;;;;;;;5.27;4.80;;;;;;;13.96;63.38;100678.63;5036899;28;20544;-64
2022/05/23 04:14:46;;;;;;;6.10;4.90;;;;;;;13.98;63.61;100680.38;5038243;28;20171;-64
2022/05/23 04:17:12;;;;;;;5.23;4.80;;;;;;;14.03;63.30;100682.97;5036946;28;20245;-64
2022/05/23 04:19:37;;;;;;;7.47;5.00;;;;;;;13.91;63.06;100683.91;5037760;28;20217;-65
2022/05/23 04:22:03;;;;;;;5.00;4.50;;;;;;;13.70;62.94;100681.38;5037960;28;20175;-64
2022/05/23 04:24:28;;;;;;;6.57;4.90;;;;;;;13.79;63.24;100684.84;5037933;28;20234;-63
2022/05/23 04:26:55;;;;;;;6.17;5.20;;;;;;;14.12;62.79;100682.91;5037656;28;20225;-64
2022/05/23 04:29:21;;;;;;;5.90;5.10;;;;;;;13.67;63.12;100686.66;5037807;28;20240;-64
2022/05/23 04:31:46;;;;;;;8.70;5.00;;;;;;;13.95;63.04;100677.78;5037442;28;20420;-64
2022/05/23 04:36:55;;;;;;;8.27;4.93;;;;;;;15.79;58.28;100652.47;5037643;28;20205;-63
2022/05/23 04:39:20;;;;;;;6.37;4.93;;;;;;;17.41;51.67;100653.38;5037485;28;20448;-64
2022/05/23 04:41:46;;;;;;;4.70;4.30;;;;;;;18.35;50.20;100635.50;5037820;28;20178;-65
2022/05/23 04:44:11;;;;;;;5.30;4.47;;;;;;;19.55;47.08;100636.72;5037472;28;20191;-64
2022/05/23 04:46:36;;;;;;;7.50;4.60;;;;;;;17.67;50.14;100643.16;5037448;28;20439;-64
2022/05/23 04:51:46;;;;;;;5.90;4.30;;;;;;;19.57;46.40;100628.78;5037201;28;20240;-64
2022/05/23 04:54:11;;;;;;;4.60;4.20;;;;;;;20.46;43.67;100631.28;5037379;28;20396;-64
2022/05/23 04:56:37;;;;;;;4.00;3.70;;;;;;;18.33;47.68;100635.56;5040967;28;20543;-64
2022/05/23 04:59:03;;;;;;;4.40;4.00;;;;;;;19.38;44.82;100628.44;5040714;28;20159;-64
2022/05/23 05:01:28;;;;;;;4.30;3.90;;;;;;;20.82;42.43;100615.09;5041358;28;20167;-64
2022/05/23 05:03:55;;;;;;;4.00;3.70;;;;;;;21.31;41.48;100614.22;5040786;28;20651;-64
2022/05/23 05:06:22;;;;;;;4.27;3.87;;;;;;;19.00;45.51;100613.59;5040800;28;20208;-64
2022/05/23 05:08:47;;;;;;;4.87;4.37;;;;;;;18.70;46.27;100607.34;5041070;28;20500;-65
2022/05/23 05:11:13;;;;;;;5.33;4.00;;;;;;;18.32;47.91;100601.25;5040589;28;20448;-64
2022/05/23 05:13:39;;;;;;;5.63;4.00;;;;;;;18.46;47.39;100606.22;5040385;28;20174;-64
2022/05/23 05:16:06;;;;;;;5.03;4.10;;;;;;;17.45;49.79;100595.28;5040991;28;20177;-64
2022/05/23 05:18:32;;;;;;;5.70;4.90;;;;;;;16.80;51.56;100595.66;5040323;28;20484;-64
2022/05/23 05:21:03;;;;;;;8.20;4.17;;;;;;;16.75;50.86;100587.88;5040409;28;20461;-63
2022/05/23 05:23:29;;;;;;;6.50;4.40;;;;;;;17.28;50.77;100590.38;5040275;28;20177;-64
2022/05/23 05:25:54;;;;;;;4.47;4.07;;;;;;;19.04;45.93;100563.31;5040213;28;20666;-64
2022/05/23 05:28:20;;;;;;;4.50;4.10;;;;;;;18.86;45.46;100568.16;5040235;28;20515;-64
2022/05/23 05:30:53;;;;;;;6.93;4.07;;;;;;;19.33;44.68;100565.97;5040481;28;20162;-64
2022/05/23 05:33:20;;;;;;;9.20;4.97;;;;;;;19.04;44.28;100556.28;5039387;28;20722;-65
2022/05/23 05:35:56;;;;;;;6.00;4.23;;;;;;;20.64;41.68;100544.19;5039406;28;20417;-65
2022/05/23 05:38:24;;;;;;;4.53;3.87;;;;;;;20.38;41.24;100542.41;5039975;28;20698;-65
2022/05/23 05:40:54;;;;;;;4.63;3.80;;;;;;;20.05;41.82;100540.00;5039789;28;20475;-64
2022/05/23 05:43:24;;;;;;;5.30;3.93;;;;;;;20.45;41.71;100528.94;5039659;28;20424;-65
2022/05/23 05:45:52;;;;;;;4.30;3.77;;;;;;;22.21;38.43;100521.38;5040030;28;20825;-64
2022/05/23 05:48:17;;;;;;;6.20;4.20;;;;;;;21.71;39.16;100517.22;5039303;28;20500;-64
2022/05/23 05:50:43;;;;;;;4.23;3.50;;;;;;;19.96;41.67;100530.59;5038984;28;20445;-64
2022/05/23 05:53:12;;;;;;;5.83;3.53;;;;;;;20.88;38.95;100520.38;5040171;28;20167;-65
2022/05/23 05:55:39;;;;;;;6.13;3.90;;;;;;;20.60;41.31;100524.03;5039122;28;20412;-65
2022/05/23 05:58:04;;;;;;;4.73;3.53;;;;;;;22.61;37.53;100508.19;5039180;28;20417;-65
2022/05/23 06:00:29;;;;;;;5.33;3.70;;;;;;;21.43;39.72;100499.72;5040069;28;20468;-64
2022/05/23 06:02:55;;;;;;;5.10;3.20;;;;;;;23.07;35.35;100519.41;5039555;28;20174;-65
2022/05/23 06:05:20;;;;;;;6.30;3.60;;;;;;;21.51;37.65;100510.91;5039191;28;20174;-64
2022/05/23 06:13:14;;;;;;;5.50;3.43;;;;;;;22.30;36.72;100504.16;5039408;28;20491;-64
2022/05/23 06:15:40;;;;;;;5.87;3.50;;;;;;;22.44;36.09;100517.75;5039323;28;20803;-65
2022/05/23 06:18:05;;;;;;;4.10;3.17;;;;;;;20.38;40.39;100505.34;5039076;28;20233;-65
2022/05/23 06:20:31;;;;;;;5.07;3.50;;;;;;;22.14;37.51;100490.72;5039017;28;20198;-65
2022/05/23 06:22:57;;;;;;;5.80;3.40;;;;;;;23.55;35.14;100488.75;5039197;28;20584;-65
2022/05/23 06:25:23;;;;;;;4.17;3.17;;;;;;;21.78;38.74;100475.41;5039246;28;20269;-65
2022/05/23 06:27:48;;;;;;;3.37;3.10;;;;;;;21.59;37.91;100475.28;5039497;28;20472;-64
2022/05/23 06:30:16;;;;;;;4.13;3.13;;;;;;;20.65;40.63;100487.66;5039093;28;20174;-65
2022/05/23 06:32:41;;;;;;;6.97;3.50;;;;;;;21.72;38.76;100487.13;5038863;28;20171;-64
2022/05/23 06:35:07;;;;;;;4.03;3.20;;;;;;;19.16;42.47;100494.28;5038909;28;20774;-66
2022/05/23 06:37:35;;;;;;;3.70;3.30;;;;;;;20.14;40.54;100514.09;5038854;28;20216;-64
2022/05/23 06:40:01;;;;;;;5.23;3.80;;;;;;;21.13;39.71;100480.59;5038778;28;20468;-64
2022/05/23 06:42:26;;;;;;;4.23;3.33;;;;;;;21.01;39.53;100481.91;5038987;28;20424;-65
2022/05/23 06:44:51;;;;;;;4.43;4.03;;;;;;;19.58;41.69;100503.56;5039013;28;20429;-65
2022/05/23 06:47:17;;;;;;;4.00;3.60;;;;;;;20.76;40.51;100482.00;5038597;28;20573;-65
2022/05/23 06:49:42;;;;;;;3.90;3.50;;;;;;;22.51;37.11;100476.69;5039333;28;20166;-66
2022/05/23 06:52:07;;;;;;;3.93;3.50;;;;;;;22.47;37.20;100480.44;5038453;28;20186;-65
2022/05/23 06:54:33;;;;;;;5.13;3.60;;;;;;;21.30;39.61;100474.63;5038572;28;20178;-64
2022/05/23 06:56:59;;;;;;;5.17;3.43;;;;;;;23.35;35.64;100467.59;5039173;28;20178;-65
2022/05/23 06:59:24;;;;;;;3.77;3.30;;;;;;;23.13;35.67;100471.28;5038473;28;20230;-64
2022/05/23 07:01:49;;;;;;;3.73;3.30;;;;;;;24.44;33.94;100457.75;5038555;28;20568;-64
2022/05/23 07:04:14;;;;;;;7.80;3.50;;;;;;;24.60;33.23;100455.09;5038754;28;20189;-65
2022/05/23 07:12:20;;;;;;;4.03;3.63;;;;;;;22.01;39.31;100458.50;5037390;28;20445;-65
2022/05/23 07:14:45;;;;;;;6.97;3.70;;;;;;;22.26;38.63;100460.09;5038404;28;20413;-65
2022/05/23 07:17:10;;;;;;;5.20;3.80;;;;;;;24.46;34.48;100440.72;5037384;28;20467;-63
2022/05/23 07:19:36;;;;;;;4.20;3.80;;;;;;;21.42;38.82;100450.28;5038170;28;20255;-65
2022/05/23 07:22:02;;;;;;;6.93;3.73;;;;;;;21.12;40.05;100447.94;5038492;28;20216;-64
2022/05/23 07:24:28;;;;;;;3.97;3.57;;;;;;;23.41;36.03;100450.47;5038416;28;20167;-64
2022/05/23 07:26:55;;;;;;;4.50;3.43;;;;;;;23.12;37.24;100439.41;5038102;28;20189;-65
2022/05/23 07:29:24;;;;;;;3.70;3.40;;;;;;;22.03;38.71;100435.41;5038436;28;20433;-64
2022/05/23 07:31:50;;;;;;;3.70;3.20;;;;;;;21.81;38.20;100446.06;5038162;28;20800;-63
2022/05/23 07:34:16;;;;;;;3.63;3.33;;;;;;;23.02;37.18;100434.53;5038081;28;20428;-65
2022/05/23 07:36:41;;;;;;;3.60;3.30;;;;;;;24.19;34.97;100432.38;5038409;28;20413;-65
2022/05/23 07:39:09;;;;;;;4.93;3.80;;;;;;;24.13;35.27;100428.25;5037778;28;20249;-65
2022/05/23 07:41:35;;;;;;;3.73;3.43;;;;;;;23.70;36.10;100431.25;5037989;28;20170;-65
2022/05/23 07:44:00;;;;;;;3.80;3.50;;;;;;;22.47;38.35;100432.63;5038312;28;20550;-64
2022/05/23 07:46:26;;;;;;;3.73;3.37;;;;;;;24.28;34.45;100417.72;5037999;28;20175;-64
2022/05/23 07:48:51;;;;;;;4.87;3.50;;;;;;;24.61;34.31;100416.84;5037763;28;20487;-65
2022/05/23 07:51:19;;;;;;;6.10;3.57;;;;;;;25.70;32.82;100404.56;5038308;28;20162;-65
2022/05/23 08:01:57;;;;;;;4.07;3.67;;;;;;;23.38;35.84;100404.47;5037795;28;20459;-64
2022/05/23 08:04:24;;;;;;;4.87;3.20;;;;;;;23.49;36.85;100393.28;5036996;28;20413;-65
2022/05/23 08:06:49;;;;;;;5.50;3.50;;;;;;;23.19;36.25;100399.19;5037757;28;20173;-66
2022/05/23 08:09:16;;;;;;;5.10;3.30;;;;;;;23.53;37.05;100392.19;5038219;28;20413;-66
2022/05/23 08:11:44;;;;;;;3.50;3.20;;;;;;;24.59;33.73;100386.78;5036987;28;20167;-65
2022/05/23 08:14:10;;;;;;;5.77;3.47;;;;;;;25.81;32.84;100382.56;5036907;28;20424;-65
2022/05/23 08:16:36;;;;;;;3.70;3.30;;;;;;;26.70;32.25;100366.41;5038224;28;20657;-65
2022/05/23 08:19:03;;;;;;;5.57;3.43;;;;;;;26.53;32.07;100374.59;5037586;28;20489;-66
2022/05/23 08:21:28;;;;;;;6.27;3.43;;;;;;;24.65;34.51;100370.47;5037461;28;20197;-64
2022/05/23 08:23:54;;;;;;;5.37;3.57;;;;;;;23.79;36.06;100381.19;5037133;28;20401;-66
2022/05/23 08:26:19;;;;;;;4.40;3.40;;;;;;;24.50;35.35;100369.47;5037362;28;20480;-65
2022/05/23 08:28:44;;;;;;;3.97;3.57;;;;;;;25.38;33.53;100365.47;5038291;28;20521;-65
2022/05/23 08:31:10;;;;;;;4.63;3.50;;;;;;;25.79;34.21;100358.63;5041811;28;20154;-65
2022/05/23 08:33:35;;;;;;;3.87;3.57;;;;;;;25.50;32.81;100360.34;5041043;28;20198;-65
2022/05/23 08:36:00;;;;;;;4.60;3.20;;;;;;;25.02;33.97;100363.09;5041144;28;20181;-65
2022/05/23 08:38:26;;;;;;;3.50;3.20;;;;;;;24.50;34.15;100372.13;5041352;28;20395;-66
2022/05/23 08:41:15;;;;;;;3.87;3.57;;;;;;;24.97;34.27;100359.81;5040952;28;20233;-65
2022/05/23 08:43:49;;;;;;;4.03;3.40;;;;;;;24.82;34.37;100345.53;5040963;28;20216;-65
2022/05/23 08:46:26;;;;;;;4.37;3.27;;;;;;;24.61;34.40;100358.22;5041158;28;20487;-65
2022/05/23 08:49:05;;;;;;;4.87;3.47;;;;;;;24.30;35.35;100346.56;5041324;28;20693;-65
2022/05/23 08:51:44;;;;;;;4.97;3.50;;;;;;;25.36;32.95;100331.81;5041012;28;20869;-65
2022/05/23 08:54:21;;;;;;;4.13;3.10;;;;;;;25.95;33.06;100328.28;5040260;28;20495;-63
2022/05/23 08:56:52;;;;;;;5.10;3.60;;;;;;;26.14;31.86;100338.72;5040985;28;20439;-64
2022/05/23 08:59:28;;;;;;;3.50;3.20;;;;;;;25.37;33.42;100337.06;5040223;28;20413;-66
2022/05/23 09:02:03;;;;;;;6.87;3.27;;;;;;;25.66;30.97;100342.47;5040182;28;20426;-63
2022/05/23 09:04:43;;;;;;;4.53;4.10;;;;;;;24.13;32.75;100337.69;5040568;28;20470;-64
2022/05/23 09:07:11;;;;;;;4.47;3.60;;;;;;;24.97;32.16;100343.81;5040037;28;20421;-65
2022/05/23 09:09:37;;;;;;;4.53;3.10;;;;;;;27.03;29.80;100330.38;5040795;28;20723;-65
2022/05/23 09:12:14;;;;;;;3.60;3.30;;;;;;;26.12;31.02;100333.50;5040370;28;20417;-65
2022/05/23 09:14:39;;;;;;;3.40;3.10;;;;;;;24.68;32.73;100330.31;5040382;28;20180;-65
2022/05/23 09:17:21;;;;;;;4.07;3.20;;;;;;;25.58;31.39;100312.69;5040278;28;20536;-64
2022/05/23 09:20:00;;;;;;;5.63;3.30;;;;;;;26.33;30.55;100314.38;5039642;28;20206;-65
2022/05/23 09:22:43;;;;;;;3.47;3.20;;;;;;;27.08;29.68;100305.16;5040339;28;20492;-65
2022/05/23 09:25:11;;;;;;;4.00;3.20;;;;;;;26.41;30.72;100316.56;5039706;28;20409;-65
2022/05/23 09:27:39;;;;;;;5.83;3.70;;;;;;;25.92;30.71;100320.47;5040101;28;20432;-65
2022/05/23 09:30:11;;;;;;;3.80;3.50;;;;;;;26.12;30.27;100300.59;5039468;28;20417;-65
2022/05/23 09:32:53;;;;;;;4.00;3.60;;;;;;;26.35;30.34;100296.44;5039242;28;20496;-65
2022/05/23 09:35:50;;;;;;;6.57;3.60;;;;;;;24.29;32.99;100296.91;5040040;28;20474;-65
2022/05/23 09:38:22;;;;;;;5.17;3.30;;;;;;;27.43;29.35;100265.34;5038708;28;20475;-65
2022/05/23 09:40:48;;;;;;;3.70;3.40;;;;;;;26.29;30.99;100267.44;5039078;28;20453;-65
2022/05/23 09:49:11;;;;;;;3.93;3.63;;;;;;;25.47;32.08;100265.31;5039911;28;20416;-64
2022/05/23 09:51:47;;;;;;;4.70;3.50;;;;;;;25.49;31.43;100260.75;5040068;28;20413;-66
2022/05/23 09:54:17;;;;;;;5.73;4.00;;;;;;;26.41;30.26;100258.63;5039919;28;20486;-65
2022/05/23 09:56:44;;;;;;;4.07;3.67;;;;;;;27.00;29.73;100253.00;5039094;28;20427;-66
2022/05/23 09:59:30;;;;;;;3.80;3.50;;;;;;;25.30;31.91;100258.31;5038921;28;20409;-66
2022/05/23 10:01:56;;;;;;;4.10;3.70;;;;;;;26.13;29.94;100254.19;5038903;28;20412;-66
2022/05/23 10:04:25;;;;;;;4.80;3.60;;;;;;;25.64;31.24;100255.41;5039567;28;20842;-65
2022/05/23 10:06:51;;;;;;;5.53;4.03;;;;;;;24.76;32.69;100256.13;5039572;28;20166;-65
2022/05/23 10:09:34;;;;;;;5.80;3.90;;;;;;;25.25;32.14;100240.81;5039879;28;20405;-65
2022/05/23 10:12:04;;;;;;;4.20;3.60;;;;;;;25.35;31.67;100242.88;5039291;28;20170;-64
2022/05/23 10:14:46;;;;;;;6.73;4.17;;;;;;;25.09;31.91;100273.75;5038763;28;20413;-65
2022/05/23 10:17:25;;;;;;;9.13;4.33;;;;;;;24.82;32.49;100239.75;5039227;28;20542;-65
2022/05/23 10:19:50;;;;;;;6.70;4.43;;;;;;;25.55;32.04;100235.50;5039481;28;20464;-65
2022/05/23 10:22:20;;;;;;;7.03;4.13;;;;;;;24.60;33.27;100248.09;5039096;28;20678;-66
2022/05/23 10:25:01;;;;;;;4.87;3.97;;;;;;;25.06;32.98;100225.94;5039082;28;20176;-65
2022/05/23 10:27:37;;;;;;;4.33;4.03;;;;;;;25.26;32.58;100234.53;5038336;28;20881;-65
2022/05/23 10:30:08;;;;;;;5.97;4.80;;;;;;;23.25;35.30;100238.47;5038380;28;20417;-66
2022/05/23 10:32:48;;;;;;;4.20;3.83;;;;;;;25.89;32.03;100220.88;5038386;28;20814;-65
2022/05/23 10:35:35;;;;;;;5.43;3.80;;;;;;;26.01;31.24;100215.75;5039175;28;20499;-66
2022/05/23 10:43:35;;;;;;;6.10;4.77;;;;;;;25.11;32.98;100209.66;5038287;28;20452;-66
2022/05/23 10:46:01;;;;;;;5.23;4.20;;;;;;;26.05;31.53;100217.31;5039055;28;20474;-65
2022/05/23 10:48:56;;;;;;;5.40;4.27;;;;;;;26.17;31.18;100197.81;5038091;28;20682;-65
2022/05/23 10:51:30;;;;;;;4.43;4.03;;;;;;;25.83;31.26;100189.25;5038145;28;20170;-64
2022/05/23 10:54:08;;;;;;;5.70;4.23;;;;;;;26.77;29.99;100184.16;5037956;28;20674;-65
2022/05/23 10:56:55;;;;;;;6.30;4.00;;;;;;;27.12;29.62;100184.44;5038118;28;20417;-65
2022/05/23 10:59:58;;;;;;;6.20;4.57;;;;;;;25.13;32.12;100195.28;5037916;28;20408;-65
2022/05/23 11:02:41;;;;;;;6.10;3.90;;;;;;;25.48;31.16;100220.78;5038715;28;20711;-65
2022/05/23 11:05:32;;;;;;;4.13;3.80;;;;;;;25.61;31.23;100184.38;5038538;28;20457;-64
2022/05/23 11:07:59;;;;;;;5.57;4.23;;;;;;;24.45;31.95;100177.00;5037931;28;20424;-65
2022/05/23 11:10:34;;;;;;;6.97;4.40;;;;;;;24.89;31.51;100171.78;5038493;28;20467;-65
2022/05/23 11:13:23;;;;;;;5.07;4.17;;;;;;;24.53;31.91;100169.44;5038251;28;20408;-65
2022/05/23 11:16:01;;;;;;;5.03;4.13;;;;;;;24.77;32.10;100164.50;5038546;28;20405;-65
2022/05/23 11:19:00;;;;;;;4.47;4.07;;;;;;;24.70;31.67;100165.81;5038060;28;20722;-64
2022/05/23 11:21:36;;;;;;;7.20;4.43;;;;;;;25.99;30.45;100150.88;5038122;28;20456;-65
2022/05/23 11:24:11;;;;;;;4.50;4.10;;;;;;;24.31;32.80;100165.34;5037440;28;20441;-64
2022/05/23 11:26:42;;;;;;;4.40;4.00;;;;;;;24.63;32.53;100148.50;5037472;28;20507;-64
2022/05/23 11:34:55;;;;;;;11.63;4.83;;;;;;;24.63;32.28;100140.50;5037772;28;20428;-65
2022/05/23 11:40:01;;;;;;;5.80;4.83;;;;;;;23.66;33.94;100152.06;5037866;28;20870;-65
2022/05/23 11:42:29;;;;;;;5.73;4.33;;;;;;;24.00;33.58;100144.91;5037862;28;20435;-66
2022/05/23 11:47:53;;;;;;;6.70;4.60;;;;;;;23.67;34.29;100148.47;5037882;28;20424;-65
2022/05/23 11:50:25;;;;;;;6.23;4.60;;;;;;;24.13;33.79;100127.31;5038125;28;20421;-65
2022/05/23 11:53:12;;;;;;;5.30;4.80;;;;;;;23.80;34.19;100122.91;5037041;28;20413;-64
2022/05/23 11:55:49;;;;;;;5.07;4.53;;;;;;;23.90;33.91;100111.78;5037902;28;20811;-64
2022/05/23 11:58:40;;;;;;;5.63;4.33;;;;;;;24.22;33.06;100112.63;5038003;28;20413;-65
2022/05/23 12:01:11;;;;;;;7.00;5.10;;;;;;;24.13;34.32;100097.16;5037832;28;20465;-65
2022/05/23 12:03:55;;;;;;;6.57;4.50;;;;;;;23.57;35.35;100094.91;5038469;28;20741;-64
2022/05/23 12:06:24;;;;;;;6.17;5.03;;;;;;;23.54;34.77;100092.41;5042041;28;20433;-65
2022/05/23 12:09:13;;;;;;;5.30;4.40;;;;;;;24.44;34.11;100090.91;5041809;28;20413;-64
2022/05/23 12:11:43;;;;;;;6.30;4.60;;;;;;;24.55;33.35;100092.94;5041790;28;20420;-65
2022/05/23 12:14:14;;;;;;;4.80;4.40;;;;;;;24.33;34.29;100072.88;5041733;28;20424;-65
2022/05/23 12:16:59;;;;;;;6.33;4.63;;;;;;;23.40;35.40;100074.53;5041468;28;20675;-65
2022/05/23 12:19:39;;;;;;;5.43;4.30;;;;;;;23.90;35.19;100064.72;5041441;28;20417;-66
2022/05/23 12:22:20;;;;;;;5.30;4.57;;;;;;;25.10;33.20;100059.44;5041495;28;20455;-64
2022/05/23 12:25:08;;;;;;;5.10;4.63;;;;;;;24.34;34.50;100060.41;5040738;28;20507;-64
2022/05/23 12:27:41;;;;;;;4.70;4.30;;;;;;;23.63;35.47;100067.94;5041607;28;20433;-65
2022/05/23 12:30:21;;;;;;;4.60;4.20;;;;;;;24.58;34.37;100059.91;5041435;28;20420;-65
2022/05/23 12:32:48;;;;;;;4.97;4.47;;;;;;;24.76;33.84;100053.53;5041283;28;20433;-65
2022/05/23 12:35:15;;;;;;;5.13;4.60;;;;;;;24.34;34.88;100036.44;5040727;28;20416;-65